Time,TemperatureF,DewpointF,PressureIn,WindDirection,WindDirectionDegrees,WindSpeedMPH,WindSpeedGustMPH,Humidity,HourlyPrecipIn,Conditions,Clouds,dailyrainin,SoftwareType,DateUTC
2013-10-03 00:06:00,44.7,22.0,29.63,SE,141,0.0,0.0,41,0.00,,,0.00,weatherlink.com 1.10,2013-10-03 06:06:00,
2013-10-03 00:22:00,44.5,22.0,29.62,SE,142,0.0,0.0,41,0.00,,,0.00,weatherlink.com 1.10,2013-10-03 06:22:00,
2013-10-03 00:36:00,44.1,23.0,29.62,SSE,161,0.0,0.0,43,0.00,,,0.00,weatherlink.com 1.10,2013-10-03 06:36:00,
2013-10-03 00:51:00,44.9,23.0,29.61,South,180,0.0,1.0,42,0.00,,,0.00,weatherlink.com 1.10,2013-10-03 06:51:00,
2013-10-03 01:07:00,44.9,23.0,29.61,SSW,192,0.0,0.0,42,0.00,,,0.00,weatherlink.com 1.10,2013-10-03 07:07:00,
2013-10-03 01:22:00,44.1,23.0,29.61,SSW,192,0.0,0.0,43,0.00,,,0.00,weatherlink.com 1.10,2013-10-03 07:22:00,
2013-10-03 01:36:00,43.0,23.0,29.61,SSW,192,0.0,0.0,45,0.00,,,0.00,weatherlink.com 1.10,2013-10-03 07:36:00,
2013-10-03 01:51:00,42.5,23.0,29.61,SE,135,0.0,1.0,46,0.00,,,0.00,weatherlink.com 1.10,2013-10-03 07:51:00,
2013-10-03 02:06:00,42.8,23.0,29.61,SE,130,0.0,3.0,45,0.00,,,0.00,weatherlink.com 1.10,2013-10-03 08:06:00,
2013-10-03 02:21:00,43.0,23.0,29.60,South,178,0.0,4.0,45,0.00,,,0.00,weatherlink.com 1.10,2013-10-03 08:21:00,
2013-10-03 02:37:00,42.5,23.0,29.59,South,170,0.0,5.0,46,0.00,,,0.00,weatherlink.com 1.10,2013-10-03 08:37:00,
2013-10-03 02:51:00,42.9,23.0,29.59,South,178,0.0,2.0,45,0.00,,,0.00,weatherlink.com 1.10,2013-10-03 08:51:00,
2013-10-03 03:06:00,43.1,22.0,29.58,South,171,0.0,3.0,44,0.00,,,0.00,weatherlink.com 1.10,2013-10-03 09:06:00,
2013-10-03 03:21:00,43.9,23.0,29.58,SSW,194,0.0,4.0,43,0.00,,,0.00,weatherlink.com 1.10,2013-10-03 09:21:00,
2013-10-03 03:36:00,45.0,22.0,29.57,SE,136,0.0,6.0,40,0.00,,,0.00,weatherlink.com 1.10,2013-10-03 09:36:00,
2013-10-03 03:51:00,45.0,21.0,29.57,South,179,1.0,8.0,39,0.00,,,0.00,weatherlink.com 1.10,2013-10-03 09:51:00,
2013-10-03 04:07:00,45.0,21.0,29.57,South,175,0.0,7.0,38,0.00,,,0.00,weatherlink.com 1.10,2013-10-03 10:07:00,
2013-10-03 04:22:00,44.9,21.0,29.56,SSW,211,0.0,9.0,38,0.00,,,0.00,weatherlink.com 1.10,2013-10-03 10:22:00,
2013-10-03 04:37:00,44.5,20.0,29.56,SW,223,0.0,8.0,38,0.00,,,0.00,weatherlink.com 1.10,2013-10-03 10:37:00,
2013-10-03 04:52:00,44.2,20.0,29.56,SW,226,0.0,7.0,38,0.00,,,0.00,weatherlink.com 1.10,2013-10-03 10:52:00,
2013-10-03 05:07:00,44.0,19.0,29.56,South,183,1.0,7.0,37,0.00,,,0.00,weatherlink.com 1.10,2013-10-03 11:07:00,
2013-10-03 05:22:00,43.9,19.0,29.55,South,182,0.0,6.0,37,0.00,,,0.00,weatherlink.com 1.10,2013-10-03 11:22:00,
2013-10-03 05:37:00,43.9,19.0,29.56,South,188,0.0,4.0,37,0.00,,,0.00,weatherlink.com 1.10,2013-10-03 11:37:00,
2013-10-03 05:52:00,43.8,19.0,29.55,SSW,199,2.0,8.0,37,0.00,,,0.00,weatherlink.com 1.10,2013-10-03 11:52:00,
2013-10-03 06:07:00,43.9,18.0,29.55,South,184,1.0,6.0,36,0.00,,,0.00,weatherlink.com 1.10,2013-10-03 12:07:00,
2013-10-03 06:23:00,43.8,18.0,29.55,South,186,0.0,7.0,36,0.00,,,0.00,weatherlink.com 1.10,2013-10-03 12:23:00,
2013-10-03 06:37:00,43.2,18.0,29.54,South,189,1.0,8.0,37,0.00,,,0.00,weatherlink.com 1.10,2013-10-03 12:37:00,
2013-10-03 06:52:00,42.9,19.0,29.54,SSE,168,0.0,7.0,38,0.00,,,0.00,weatherlink.com 1.10,2013-10-03 12:52:00,
2013-10-03 07:07:00,43.0,19.0,29.54,SW,231,0.0,7.0,38,0.00,,,0.00,weatherlink.com 1.10,2013-10-03 13:07:00,
2013-10-03 07:22:00,42.3,19.0,29.54,SSE,151,0.0,3.0,39,0.00,,,0.00,weatherlink.com 1.10,2013-10-03 13:22:00,
2013-10-03 07:37:00,42.9,19.0,29.54,SSW,207,0.0,11.0,39,0.00,,,0.00,weatherlink.com 1.10,2013-10-03 13:37:00,
2013-10-03 07:52:00,44.1,20.0,29.54,SSW,192,0.0,7.0,39,0.00,,,0.00,weatherlink.com 1.10,2013-10-03 13:52:00,
2013-10-03 08:07:00,45.6,21.0,29.54,South,182,0.0,3.0,38,0.00,,,0.00,weatherlink.com 1.10,2013-10-03 14:07:00,
2013-10-03 08:22:00,45.6,22.0,29.53,West,270,0.0,3.0,39,0.00,,,0.00,weatherlink.com 1.10,2013-10-03 14:22:00,
2013-10-03 08:38:00,46.8,22.0,29.52,SW,215,0.0,9.0,38,0.00,,,0.00,weatherlink.com 1.10,2013-10-03 14:38:00,
2013-10-03 08:53:00,48.4,22.0,29.51,SSE,168,2.0,7.0,35,0.00,,,0.00,weatherlink.com 1.10,2013-10-03 14:53:00,
2013-10-03 09:08:00,49.4,23.0,29.51,South,188,0.0,11.0,35,0.00,,,0.00,weatherlink.com 1.10,2013-10-03 15:08:00,
2013-10-03 09:23:00,50.5,23.0,29.50,South,182,0.0,11.0,34,0.00,,,0.00,weatherlink.com 1.10,2013-10-03 15:23:00,
2013-10-03 09:38:00,51.9,23.0,29.49,SW,222,1.0,10.0,33,0.00,,,0.00,weatherlink.com 1.10,2013-10-03 15:38:00,
2013-10-03 09:54:00,53.2,25.0,29.49,West,279,0.0,12.0,33,0.00,,,0.00,weatherlink.com 1.10,2013-10-03 15:54:00,
2013-10-03 10:08:00,54.2,24.0,29.48,East,81,0.0,11.0,31,0.00,,,0.00,weatherlink.com 1.10,2013-10-03 16:08:00,
2013-10-03 10:23:00,55.3,24.0,29.48,SSW,205,3.0,15.0,30,0.00,,,0.00,weatherlink.com 1.10,2013-10-03 16:23:00,
2013-10-03 10:38:00,56.0,24.0,29.47,South,174,6.0,19.0,29,0.00,,,0.00,weatherlink.com 1.10,2013-10-03 16:38:00,
2013-10-03 10:53:00,56.9,24.0,29.47,SW,215,4.0,16.0,28,0.00,,,0.00,weatherlink.com 1.10,2013-10-03 16:53:00,
2013-10-03 11:08:00,57.1,23.0,29.46,SSE,165,10.0,22.0,27,0.00,,,0.00,weatherlink.com 1.10,2013-10-03 17:08:00,
2013-10-03 11:23:00,57.7,23.0,29.45,SSE,148,0.0,15.0,26,0.00,,,0.00,weatherlink.com 1.10,2013-10-03 17:23:00,
2013-10-03 11:38:00,57.9,23.0,29.45,SSW,197,5.0,14.0,26,0.00,,,0.00,weatherlink.com 1.10,2013-10-03 17:38:00,
2013-10-03 11:53:00,59.0,24.0,29.44,SE,130,0.0,17.0,26,0.00,,,0.00,weatherlink.com 1.10,2013-10-03 17:53:00,
2013-10-03 12:09:00,59.5,23.0,29.44,SW,232,9.0,16.0,25,0.00,,,0.00,weatherlink.com 1.10,2013-10-03 18:09:00,
2013-10-03 12:24:00,59.5,23.0,29.43,SE,127,0.0,16.0,25,0.00,,,0.00,weatherlink.com 1.10,2013-10-03 18:24:00,
2013-10-03 12:39:00,60.7,22.0,29.42,SSW,196,4.0,18.0,23,0.00,,,0.00,weatherlink.com 1.10,2013-10-03 18:39:00,
2013-10-03 12:53:00,61.5,23.0,29.41,SSE,157,7.0,17.0,23,0.00,,,0.00,weatherlink.com 1.10,2013-10-03 18:53:00,
2013-10-03 13:09:00,62.2,25.0,29.41,South,178,8.0,14.0,24,0.00,,,0.00,weatherlink.com 1.10,2013-10-03 19:09:00,
2013-10-03 13:24:00,62.2,24.0,29.40,SE,127,10.0,15.0,23,0.00,,,0.00,weatherlink.com 1.10,2013-10-03 19:24:00,
2013-10-03 13:39:00,62.0,24.0,29.39,East,94,1.0,18.0,23,0.00,,,0.00,weatherlink.com 1.10,2013-10-03 19:39:00,
2013-10-03 13:54:00,61.6,24.0,29.38,SE,128,3.0,21.0,24,0.00,,,0.00,weatherlink.com 1.10,2013-10-03 19:54:00,
2013-10-03 14:09:00,62.3,24.0,29.38,SW,219,7.0,14.0,23,0.00,,,0.00,weatherlink.com 1.10,2013-10-03 20:09:00,
2013-10-03 14:24:00,62.7,24.0,29.37,ESE,109,4.0,16.0,23,0.00,,,0.00,weatherlink.com 1.10,2013-10-03 20:24:00,
2013-10-03 14:39:00,63.1,25.0,29.37,East,96,7.0,15.0,23,0.00,,,0.00,weatherlink.com 1.10,2013-10-03 20:39:00,
2013-10-03 14:54:00,62.6,24.0,29.36,SSE,153,7.0,16.0,23,0.00,,,0.00,weatherlink.com 1.10,2013-10-03 20:54:00,
2013-10-03 15:09:00,61.9,25.0,29.36,South,175,10.0,21.0,24,0.00,,,0.00,weatherlink.com 1.10,2013-10-03 21:09:00,
2013-10-03 15:24:00,62.3,24.0,29.35,ESE,123,8.0,15.0,23,0.00,,,0.00,weatherlink.com 1.10,2013-10-03 21:24:00,
2013-10-03 15:39:00,62.1,24.0,29.35,ESE,112,10.0,18.0,23,0.00,,,0.00,weatherlink.com 1.10,2013-10-03 21:39:00,
2013-10-03 15:54:00,61.2,24.0,29.35,SSE,159,7.0,14.0,24,0.00,,,0.00,weatherlink.com 1.10,2013-10-03 21:54:00,
2013-10-03 16:09:00,60.4,25.0,29.34,SE,146,16.0,19.0,26,0.00,,,0.00,weatherlink.com 1.10,2013-10-03 22:09:00,
2013-10-03 16:24:00,60.0,24.0,29.34,SW,226,9.0,17.0,25,0.00,,,0.00,weatherlink.com 1.10,2013-10-03 22:24:00,
2013-10-03 16:39:00,59.5,23.0,29.33,ENE,61,11.0,18.0,25,0.00,,,0.00,weatherlink.com 1.10,2013-10-03 22:39:00,
2013-10-03 16:54:00,58.9,22.0,29.33,ESE,123,4.0,15.0,24,0.00,,,0.00,weatherlink.com 1.10,2013-10-03 22:54:00,
2013-10-03 17:09:00,59.3,23.0,29.33,SE,130,13.0,18.0,25,0.00,,,0.00,weatherlink.com 1.10,2013-10-03 23:09:00,
2013-10-03 17:24:00,59.0,23.0,29.34,East,86,9.0,11.0,25,0.00,,,0.00,weatherlink.com 1.10,2013-10-03 23:24:00,
2013-10-03 17:39:00,57.4,23.0,29.34,East,88,2.0,13.0,26,0.00,,,0.00,weatherlink.com 1.10,2013-10-03 23:39:00,
2013-10-03 17:54:00,56.6,24.0,29.34,ENE,59,2.0,12.0,28,0.00,,,0.00,weatherlink.com 1.10,2013-10-03 23:54:00,
2013-10-03 18:09:00,55.8,23.0,29.35,NE,46,1.0,14.0,28,0.00,,,0.00,weatherlink.com 1.10,2013-10-04 00:09:00,
2013-10-03 18:24:00,54.9,23.0,29.36,SSE,149,5.0,12.0,29,0.00,,,0.00,weatherlink.com 1.10,2013-10-04 00:24:00,
2013-10-03 18:39:00,53.7,23.0,29.36,East,100,0.0,14.0,30,0.00,,,0.00,weatherlink.com 1.10,2013-10-04 00:39:00,
2013-10-03 18:54:00,52.4,22.0,29.37,SSW,201,12.0,12.0,31,0.00,,,0.00,weatherlink.com 1.10,2013-10-04 00:54:00,
2013-10-03 19:09:00,51.4,22.0,29.38,ENE,72,0.0,9.0,31,0.00,,,0.00,weatherlink.com 1.10,2013-10-04 01:09:00,
2013-10-03 19:24:00,50.9,21.0,29.38,East,100,6.0,16.0,31,0.00,,,0.00,weatherlink.com 1.10,2013-10-04 01:24:00,
2013-10-03 19:39:00,51.2,22.0,29.39,ESE,112,3.0,14.0,32,0.00,,,0.00,weatherlink.com 1.10,2013-10-04 01:39:00,
2013-10-03 19:54:00,51.4,22.0,29.39,South,174,1.0,12.0,32,0.00,,,0.00,weatherlink.com 1.10,2013-10-04 01:54:00,
2013-10-03 20:10:00,51.0,23.0,29.39,SW,220,4.0,19.0,33,0.00,,,0.00,weatherlink.com 1.10,2013-10-04 02:10:00,
2013-10-03 20:25:00,50.5,23.0,29.39,South,176,8.0,15.0,34,0.00,,,0.00,weatherlink.com 1.10,2013-10-04 02:25:00,
2013-10-03 20:40:00,49.5,23.0,29.39,SSW,205,0.0,16.0,35,0.00,,,0.00,weatherlink.com 1.10,2013-10-04 02:40:00,
2013-10-03 20:55:00,48.8,22.0,29.39,South,185,0.0,17.0,35,0.00,,,0.00,weatherlink.com 1.10,2013-10-04 02:55:00,
2013-10-03 21:10:00,48.2,22.0,29.37,SW,217,3.0,18.0,35,0.00,,,0.00,weatherlink.com 1.10,2013-10-04 03:10:00,
2013-10-03 21:25:00,48.0,22.0,29.37,South,176,5.0,18.0,36,0.00,,,0.00,weatherlink.com 1.10,2013-10-04 03:25:00,
2013-10-03 21:40:00,47.8,22.0,29.37,SW,215,4.0,16.0,36,0.00,,,0.00,weatherlink.com 1.10,2013-10-04 03:40:00,
2013-10-03 21:55:00,48.2,23.0,29.37,SSE,159,9.0,21.0,37,0.00,,,0.00,weatherlink.com 1.10,2013-10-04 03:55:00,
2013-10-03 22:41:00,46.2,23.0,29.37,ESE,111,0.0,4.0,40,0.00,,,0.00,weatherlink.com 1.10,2013-10-04 04:41:00,
2013-10-03 22:56:00,45.5,23.0,29.36,SE,130,0.0,0.0,41,0.00,,,0.00,weatherlink.com 1.10,2013-10-04 04:56:00,
2013-10-03 23:10:00,45.1,24.0,29.36,ESE,120,0.0,5.0,43,0.00,,,0.00,weatherlink.com 1.10,2013-10-04 05:10:00,
2013-10-03 23:25:00,46.1,25.0,29.35,SSE,163,0.0,10.0,43,0.00,,,0.00,weatherlink.com 1.10,2013-10-04 05:25:00,
2013-10-03 23:40:00,46.8,25.0,29.34,SSE,153,0.0,7.0,42,0.00,,,0.00,weatherlink.com 1.10,2013-10-04 05:40:00,
2013-10-03 23:55:00,47.1,25.0,29.33,East,95,0.0,2.0,42,0.00,,,0.00,weatherlink.com 1.10,2013-10-04 05:55:00,